createdAt,value
2023-07-12T00:02:15.351Z,99041.31
2023-07-12T00:04:51.220Z,99062.56
2023-07-12T00:07:22.625Z,99064.34
2023-07-12T00:09:51.974Z,99064.28
2023-07-12T00:12:21.253Z,99059.09
2023-07-12T00:14:50.615Z,99052.00
2023-07-12T00:19:57.097Z,99052.47
2023-07-12T00:22:28.309Z,99055.13
2023-07-12T00:24:57.721Z,99048.44
2023-07-12T00:27:26.909Z,99041.66
2023-07-12T00:29:56.261Z,99063.31
2023-07-12T00:32:30.647Z,99056.59
2023-07-12T00:35:00.352Z,99045.75
2023-07-12T00:37:35.706Z,99044.84
2023-07-12T00:40:06.528Z,99061.06
2023-07-12T00:42:41.616Z,99060.03
2023-07-12T00:45:14.152Z,99070.34
2023-07-12T00:47:45.140Z,99054.16
2023-07-12T00:50:21.326Z,99062.56
2023-07-12T00:52:59.680Z,99043.44
2023-07-12T00:55:59.146Z,99060.59
2023-07-12T00:58:32.666Z,99060.72
2023-07-12T01:01:05.676Z,99053.81
2023-07-12T01:03:39.426Z,99047.75
2023-07-12T01:06:12.285Z,99058.84
2023-07-12T01:08:54.757Z,99048.34
2023-07-12T01:11:28.311Z,99030.56
2023-07-12T01:14:00.720Z,99043.13
2023-07-12T01:16:31.100Z,99049.91
2023-07-12T01:21:49.098Z,99041.09
2023-07-12T01:24:19.706Z,99037.56
2023-07-12T01:26:50.540Z,99038.34
2023-07-12T01:29:20.379Z,99039.13
2023-07-12T01:31:50.114Z,99030.44
2023-07-12T01:34:20.527Z,99026.09
2023-07-12T01:36:52.159Z,99025.06
2023-07-12T01:39:21.693Z,99034.72
2023-07-12T01:41:50.836Z,99017.38
2023-07-12T01:44:37.987Z,99016.22
2023-07-12T01:47:07.480Z,99018.09
2023-07-12T01:49:39.148Z,99006.88
2023-07-12T01:52:15.914Z,99010.16
2023-07-12T01:54:45.227Z,99020.66
2023-07-12T01:57:14.630Z,99025.94
2023-07-12T01:59:49.150Z,99021.34
2023-07-12T02:02:18.517Z,99016.00
2023-07-12T02:04:53.901Z,99007.56
2023-07-12T02:07:25.336Z,99010.59
2023-07-12T02:10:20.969Z,99022.47
2023-07-12T02:12:51.450Z,99019.88
2023-07-12T02:15:25.939Z,99025.78
2023-07-12T02:17:56.226Z,99025.69
2023-07-12T02:20:31.026Z,99016.84
2023-07-12T02:23:02.445Z,99016.50
2023-07-12T02:25:38.427Z,99007.97
2023-07-12T02:28:13.130Z,99014.53
2023-07-12T02:30:46.267Z,99022.06
2023-07-12T02:33:15.558Z,99019.41
2023-07-12T02:35:45.284Z,99017.66
2023-07-12T02:38:16.629Z,99014.84
2023-07-12T02:40:46.046Z,99013.66
2023-07-12T02:43:15.408Z,99011.47
2023-07-12T02:48:25.154Z,99007.13
2023-07-12T02:50:59.354Z,99014.97
2023-07-12T02:53:31.667Z,99006.38
2023-07-12T02:56:00.953Z,99009.44
2023-07-12T02:58:30.211Z,99008.38
2023-07-12T03:01:05.705Z,99005.34
2023-07-12T03:03:35.327Z,98999.84
2023-07-12T03:06:06.192Z,99008.75
2023-07-12T03:08:37.934Z,99011.09
2023-07-12T03:11:08.874Z,99016.00
2023-07-12T03:13:42.614Z,98993.44
2023-07-12T03:16:22.070Z,99009.56
2023-07-12T03:18:52.039Z,98997.88
2023-07-12T03:21:21.476Z,98977.06
2023-07-12T03:23:52.914Z,99005.66
2023-07-12T03:26:22.264Z,99005.69
2023-07-12T03:28:59.369Z,99002.31
2023-07-12T03:31:30.306Z,99001.41
2023-07-12T03:34:05.433Z,99002.06
2023-07-12T03:36:34.909Z,99000.56
2023-07-12T03:39:11.466Z,98994.81
2023-07-12T03:41:40.761Z,98990.69
2023-07-12T03:44:10.159Z,98994.47
2023-07-12T03:46:39.500Z,98993.28
2023-07-12T03:49:08.838Z,98963.25
2023-07-12T03:51:38.345Z,98987.25
2023-07-12T03:54:07.679Z,98971.91
2023-07-12T03:56:38.851Z,98989.63
2023-07-12T03:59:09.218Z,98939.56
2023-07-12T04:01:39.963Z,98985.00
2023-07-12T04:04:09.365Z,98976.78
2023-07-12T04:06:41.002Z,98974.25
2023-07-12T04:09:10.558Z,98973.22
2023-07-12T04:11:42.288Z,98964.63
2023-07-12T04:14:16.266Z,98982.59
2023-07-12T04:16:48.159Z,98975.38
2023-07-12T04:19:17.538Z,98983.13
2023-07-12T04:21:46.769Z,98963.84
2023-07-12T04:24:16.076Z,98980.81
2023-07-12T04:26:47.379Z,98981.81
2023-07-12T04:29:16.685Z,98973.06
2023-07-12T04:31:45.930Z,98977.84
2023-07-12T04:34:22.847Z,98983.63
2023-07-12T04:37:09.766Z,98982.34
2023-07-12T04:39:39.153Z,98954.94
2023-07-12T04:42:15.382Z,98983.94
2023-07-12T04:44:47.449Z,98985.56
2023-07-12T04:47:18.439Z,98988.78
2023-07-12T04:49:47.958Z,98979.75
2023-07-12T04:52:17.598Z,98992.31
2023-07-12T04:54:47.380Z,98981.09
2023-07-12T04:57:18.627Z,98997.38
2023-07-12T04:59:48.136Z,98985.94
2023-07-12T05:02:17.367Z,98991.41
2023-07-12T05:04:52.822Z,98983.38
2023-07-12T05:07:22.095Z,98967.19
2023-07-12T05:09:51.500Z,98986.63
2023-07-12T05:12:23.029Z,98990.28
2023-07-12T05:14:52.399Z,98984.66
2023-07-12T05:17:21.977Z,98980.75
2023-07-12T05:19:51.605Z,98989.38
2023-07-12T05:22:20.899Z,98976.19
2023-07-12T05:24:50.381Z,98956.22
2023-07-12T05:27:26.647Z,98953.47
2023-07-12T05:29:56.542Z,98964.56
2023-07-12T05:32:25.887Z,98968.78
2023-07-12T05:34:55.365Z,98960.44
2023-07-12T05:37:27.677Z,98967.97
2023-07-12T05:39:59.821Z,98946.28
2023-07-12T05:42:31.362Z,98948.47
2023-07-12T05:45:06.760Z,98955.97
2023-07-12T05:47:36.207Z,98960.47
2023-07-12T05:50:06.198Z,98950.19
2023-07-12T05:52:35.661Z,98949.00
2023-07-12T05:55:05.091Z,98950.09
2023-07-12T05:57:41.990Z,98908.69
2023-07-12T06:00:15.069Z,98942.47
2023-07-12T06:02:50.247Z,98935.13
2023-07-12T06:05:20.046Z,98927.97
2023-07-12T06:07:49.620Z,98937.63
2023-07-12T06:10:19.217Z,98933.03
2023-07-12T06:12:50.512Z,98944.06
2023-07-12T06:15:20.272Z,98930.06
2023-07-12T06:17:54.652Z,98930.19
2023-07-12T06:20:24.155Z,98934.16
2023-07-12T06:22:53.335Z,98932.25
2023-07-12T06:25:22.949Z,98931.25
2023-07-12T06:27:54.693Z,98941.06
2023-07-12T06:30:24.472Z,98934.34
2023-07-12T06:32:54.154Z,98938.25
2023-07-12T06:35:23.544Z,98942.09
2023-07-12T06:37:52.665Z,98929.94
2023-07-12T06:40:27.324Z,98929.06
2023-07-12T06:43:03.956Z,98930.75
2023-07-12T06:45:38.626Z,98890.94
2023-07-12T06:48:13.150Z,98915.31
2023-07-12T06:50:42.795Z,98938.56
2023-07-12T06:53:12.176Z,98909.34
2023-07-12T06:58:33.129Z,98927.38
2023-07-12T07:01:07.866Z,98931.59
2023-07-12T07:03:38.613Z,98936.94
2023-07-12T07:06:08.081Z,98903.63
2023-07-12T07:08:37.744Z,98909.53
2023-07-12T07:11:07.369Z,98935.13
2023-07-12T07:13:38.968Z,98922.44
2023-07-12T07:16:13.745Z,98917.50
2023-07-12T07:18:50.128Z,98931.59
2023-07-12T07:21:24.549Z,98938.00
2023-07-12T07:23:54.489Z,98938.19
2023-07-12T07:26:23.927Z,98928.44
2023-07-12T07:29:00.378Z,98918.75
2023-07-12T07:31:34.809Z,98915.63
2023-07-12T07:34:04.488Z,98917.06
2023-07-12T07:36:33.786Z,98924.50
2023-07-12T07:39:03.761Z,98927.63
2023-07-12T07:41:33.001Z,98921.06
2023-07-12T07:44:04.172Z,98923.19
2023-07-12T07:46:33.893Z,98925.00
2023-07-12T07:49:03.395Z,98937.16
2023-07-12T07:51:38.897Z,98899.63
2023-07-12T07:54:08.307Z,98911.09
2023-07-12T07:56:37.783Z,98930.06
2023-07-12T07:59:15.430Z,98930.38
2023-07-12T08:01:46.173Z,98936.75
2023-07-12T08:04:18.098Z,98954.41
2023-07-12T08:06:47.822Z,98934.97
2023-07-12T08:09:17.225Z,98922.31
2023-07-12T08:11:46.597Z,98922.91
2023-07-12T08:14:24.117Z,98944.81
2023-07-12T08:16:54.070Z,98934.38
2023-07-12T08:19:27.980Z,98944.59
2023-07-12T08:21:57.803Z,98948.41
2023-07-12T08:24:27.272Z,98946.94
2023-07-12T08:27:07.109Z,98943.34
2023-07-12T08:29:40.527Z,98944.03
2023-07-12T08:32:15.371Z,98942.19
2023-07-12T08:34:49.777Z,98936.66
2023-07-12T08:37:19.251Z,98942.56
2023-07-12T08:39:48.647Z,98943.47
2023-07-12T08:42:22.647Z,98940.25
2023-07-12T08:44:55.089Z,98945.94
2023-07-12T08:50:16.836Z,98943.47
2023-07-12T08:52:48.298Z,98949.06
2023-07-12T08:55:26.043Z,98947.22
2023-07-12T08:58:00.254Z,98960.44
2023-07-12T09:00:35.047Z,98929.63
2023-07-12T09:03:04.380Z,98950.94
2023-07-12T09:05:33.990Z,98954.84
2023-07-12T09:08:15.201Z,98969.19
2023-07-12T09:10:49.834Z,98967.16
2023-07-12T09:13:35.343Z,98973.69
2023-07-12T09:16:22.023Z,98977.13
2023-07-12T09:19:00.449Z,98983.50
2023-07-12T09:21:32.014Z,98971.34
2023-07-12T09:24:05.774Z,98991.03
2023-07-12T09:26:46.412Z,98987.88
2023-07-12T09:29:23.563Z,98996.28
2023-07-12T09:32:02.157Z,98989.88
2023-07-12T09:34:44.094Z,98990.66
2023-07-12T09:37:16.364Z,98976.00
2023-07-12T09:39:59.434Z,98975.44
2023-07-12T09:42:30.077Z,98967.84
2023-07-12T09:47:54.843Z,98955.47
2023-07-12T09:50:34.669Z,98947.66
2023-07-12T09:53:09.160Z,98950.31
2023-07-12T09:58:38.708Z,98950.38
2023-07-12T10:01:19.693Z,98951.63
2023-07-12T10:03:58.233Z,98953.41
2023-07-12T10:06:38.604Z,98914.63
2023-07-12T10:09:14.542Z,98945.38
2023-07-12T10:11:49.569Z,98943.97
2023-07-12T10:14:21.941Z,98938.38
2023-07-12T10:16:57.378Z,98942.78
2023-07-12T10:19:33.195Z,98946.63
2023-07-12T10:22:06.181Z,98939.44
2023-07-12T10:24:39.838Z,98923.25
2023-07-12T10:27:19.982Z,98935.41
2023-07-12T10:29:55.440Z,98939.69
2023-07-12T10:32:28.974Z,98939.38
2023-07-12T10:35:12.525Z,98927.84
2023-07-12T10:37:49.869Z,98929.91
2023-07-12T10:40:22.890Z,98931.59
2023-07-12T10:42:58.599Z,98940.63
2023-07-12T10:45:30.157Z,98937.31
2023-07-12T10:48:01.255Z,98934.47
2023-07-12T10:50:38.772Z,98938.00
2023-07-12T10:56:12.972Z,98935.84
2023-07-12T10:58:53.214Z,98939.50
2023-07-12T11:01:49.034Z,98939.25
2023-07-12T11:04:32.848Z,98950.25
2023-07-12T11:07:07.730Z,98944.88
2023-07-12T11:10:07.353Z,98946.25
2023-07-12T11:12:40.622Z,98943.97
2023-07-12T11:15:25.614Z,98946.16
2023-07-12T11:18:04.013Z,98950.75
2023-07-12T11:20:37.276Z,98933.00
2023-07-12T11:23:42.292Z,98949.09
2023-07-12T11:26:27.623Z,98919.91
2023-07-12T11:29:19.065Z,98940.44
2023-07-12T11:31:52.785Z,98943.69
2023-07-12T11:34:25.539Z,98937.34
2023-07-12T11:37:02.641Z,98935.88
2023-07-12T11:39:32.994Z,98941.31
2023-07-12T11:42:28.666Z,98935.69
2023-07-12T11:45:06.469Z,98934.22
2023-07-12T11:47:37.738Z,98924.94
2023-07-12T11:50:10.932Z,98927.97
2023-07-12T11:52:45.526Z,98925.47
2023-07-12T11:55:22.590Z,98927.25
2023-07-12T11:57:54.448Z,98901.88
2023-07-12T12:00:30.270Z,98924.34
2023-07-12T12:03:01.799Z,98897.06
2023-07-12T12:05:34.032Z,98901.03
2023-07-12T12:08:03.617Z,98907.53
2023-07-12T12:10:38.338Z,98909.84
2023-07-12T12:13:31.507Z,98890.25
2023-07-12T12:16:12.160Z,98912.44
2023-07-12T12:18:59.178Z,98910.06
2023-07-12T12:21:30.709Z,98912.19
2023-07-12T12:24:08.274Z,98878.84
2023-07-12T12:26:42.285Z,98921.22
2023-07-12T12:29:18.702Z,98907.19
2023-07-12T12:31:54.709Z,98915.63
2023-07-12T12:34:27.950Z,98918.94
2023-07-12T12:37:01.679Z,98916.63
2023-07-12T12:39:37.686Z,98901.69
2023-07-12T12:42:20.991Z,98904.06
2023-07-12T12:58:05.197Z,98914.50
2023-07-12T13:06:35.283Z,98918.03
2023-07-12T13:11:13.287Z,98917.94
2023-07-12T13:19:31.726Z,98912.53
2023-07-12T13:22:03.171Z,98921.84
2023-07-12T13:24:32.326Z,98910.56
2023-07-12T13:27:01.478Z,98916.50
2023-07-12T13:29:30.972Z,98913.69
2023-07-12T13:32:00.416Z,98905.56
2023-07-12T13:36:06.888Z,98915.41
2023-07-12T13:37:28.969Z,98912.28
2023-07-12T13:40:20.244Z,98918.03
2023-07-12T13:42:58.385Z,98921.75
2023-07-12T13:45:30.644Z,98908.28
2023-07-12T13:48:00.190Z,98916.78
2023-07-12T13:50:29.620Z,98915.06
2023-07-12T13:53:01.482Z,98858.22
2023-07-12T13:55:31.140Z,98912.84
2023-07-12T13:58:00.334Z,98899.09
2023-07-12T14:03:22.114Z,98905.97
2023-07-12T14:05:57.897Z,98903.41
2023-07-12T14:11:06.642Z,98883.34
2023-07-12T14:13:36.579Z,98891.34
2023-07-12T14:16:06.211Z,98893.50
2023-07-12T14:18:35.933Z,98890.31
2023-07-12T14:21:15.354Z,98900.28
2023-07-12T14:23:52.135Z,98899.91
2023-07-12T14:26:24.488Z,98897.50
2023-07-12T14:28:58.235Z,98873.91
2023-07-12T14:31:29.779Z,98890.63
2023-07-12T14:33:59.609Z,98892.25
2023-07-12T14:36:29.300Z,98884.28
2023-07-12T14:39:06.017Z,98886.63
2023-07-12T14:41:36.293Z,98874.63
2023-07-12T14:44:15.309Z,98878.09
2023-07-12T14:46:45.077Z,98857.41
2023-07-12T14:49:14.650Z,98884.75
2023-07-12T14:51:52.492Z,98874.41
2023-07-12T14:54:39.316Z,98890.16
2023-07-12T14:57:45.174Z,98888.09
2023-07-12T15:00:16.743Z,98874.44
2023-07-12T15:03:01.642Z,98891.75
2023-07-12T15:05:31.283Z,98889.44
2023-07-12T15:08:00.546Z,98872.91
2023-07-12T15:10:33.343Z,98894.44
2023-07-12T15:13:03.692Z,98875.34
2023-07-12T15:15:34.971Z,98863.28
2023-07-12T15:18:18.163Z,98878.16
2023-07-12T15:21:10.520Z,98878.09
2023-07-12T15:23:40.503Z,98880.44
2023-07-12T15:26:12.964Z,98881.16
2023-07-12T15:28:42.674Z,98864.03
2023-07-12T15:31:25.396Z,98884.72
2023-07-12T15:33:54.951Z,98872.84
2023-07-12T15:36:25.783Z,98872.41
2023-07-12T15:38:55.140Z,98864.34
2023-07-12T15:41:28.913Z,98865.47
2023-07-12T15:43:59.632Z,98863.75
2023-07-12T15:46:32.750Z,98867.34
2023-07-12T15:49:07.297Z,98854.03
2023-07-12T15:54:23.657Z,98894.00
2023-07-12T15:56:55.943Z,98862.13
2023-07-12T15:59:29.199Z,98882.66
2023-07-12T16:01:59.470Z,98879.88
2023-07-12T16:04:28.796Z,98894.66
2023-07-12T16:07:03.500Z,98850.28
2023-07-12T16:09:33.655Z,98886.41
2023-07-12T16:12:05.646Z,98878.25
2023-07-12T16:14:35.449Z,98885.31
2023-07-12T16:17:05.162Z,98871.47
2023-07-12T16:19:34.565Z,98884.97
2023-07-12T16:22:03.878Z,98884.28
2023-07-12T16:24:39.916Z,98874.31
2023-07-12T16:27:19.593Z,98872.03
2023-07-12T16:29:49.192Z,98876.63
2023-07-12T16:32:19.916Z,98885.78
2023-07-12T16:34:49.981Z,98887.72
2023-07-12T16:37:21.029Z,98870.16
2023-07-12T16:39:52.709Z,98884.66
2023-07-12T16:42:32.716Z,98884.97
2023-07-12T16:45:02.719Z,98887.66
2023-07-12T16:47:34.254Z,98863.91
2023-07-12T16:50:09.028Z,98886.25
2023-07-12T16:52:38.535Z,98873.75
2023-07-12T16:55:23.778Z,98889.25
2023-07-12T16:57:55.286Z,98883.25
2023-07-12T17:00:31.453Z,98886.91
2023-07-12T17:03:00.902Z,98892.75
2023-07-12T17:05:30.330Z,98892.75
2023-07-12T17:07:59.589Z,98902.16
2023-07-12T17:10:28.956Z,98897.59
2023-07-12T17:13:00.749Z,98913.00
2023-07-12T17:15:30.217Z,98926.09
2023-07-12T17:18:00.732Z,98901.56
2023-07-12T17:20:31.534Z,98904.97
2023-07-12T17:23:02.716Z,98908.91
2023-07-12T17:25:32.154Z,98910.16
2023-07-12T17:28:03.537Z,98909.03
2023-07-12T17:30:33.192Z,98909.91
2023-07-12T17:33:05.670Z,98920.56
2023-07-12T17:35:35.075Z,98926.75
2023-07-12T17:38:09.365Z,98923.25
2023-07-12T17:40:38.951Z,98927.66
2023-07-12T17:43:15.548Z,98928.69
2023-07-12T17:45:45.943Z,98923.63
2023-07-12T17:48:21.195Z,98925.59
2023-07-12T17:50:59.734Z,98925.81
2023-07-12T17:53:29.496Z,98918.28
2023-07-12T17:56:01.045Z,98931.16
2023-07-12T17:58:32.483Z,98926.00
2023-07-12T18:01:04.624Z,98925.38
2023-07-12T18:03:34.357Z,98919.19
2023-07-12T18:06:03.801Z,98922.22
2023-07-12T18:08:33.277Z,98932.50
2023-07-12T18:11:22.523Z,98936.53
2023-07-12T18:13:54.070Z,98931.00
2023-07-12T18:16:23.735Z,98935.41
2023-07-12T18:18:54.019Z,98924.47
2023-07-12T18:21:26.850Z,98921.09
2023-07-12T18:23:57.204Z,98923.00
2023-07-12T18:26:28.001Z,98947.03
2023-07-12T18:28:59.274Z,98934.09
2023-07-12T18:31:31.563Z,98932.66
2023-07-12T18:34:02.819Z,98934.59
2023-07-12T18:36:33.051Z,98936.41
2023-07-12T18:39:07.866Z,98930.50
2023-07-12T18:44:16.453Z,98907.25
2023-07-12T18:46:46.949Z,98931.22
2023-07-12T18:49:16.533Z,98915.13
2023-07-12T18:51:45.758Z,98940.59
2023-07-12T18:54:22.154Z,98939.78
2023-07-12T18:56:51.698Z,98932.75
2023-07-12T18:59:23.230Z,98920.56
2023-07-12T19:01:53.133Z,98928.91
2023-07-12T19:04:28.831Z,98921.88
2023-07-12T19:06:58.201Z,98928.06
2023-07-12T19:09:27.539Z,98931.56
2023-07-12T19:11:59.914Z,98928.09
2023-07-12T19:14:32.200Z,98918.84
2023-07-12T19:17:03.640Z,98926.97
2023-07-12T19:19:33.168Z,98927.69
2023-07-12T19:22:09.160Z,98908.69
2023-07-12T19:24:43.916Z,98918.75
2023-07-12T19:27:24.304Z,98926.34
2023-07-12T19:30:01.878Z,98927.31
2023-07-12T19:32:41.576Z,98924.72
2023-07-12T19:35:21.050Z,98916.91
2023-07-12T19:37:50.847Z,98925.09
2023-07-12T19:40:20.947Z,98910.66
2023-07-12T19:42:52.145Z,98906.50
2023-07-12T19:45:28.581Z,98924.41
2023-07-12T19:47:59.348Z,98927.81
2023-07-12T19:50:34.404Z,98930.38
2023-07-12T19:53:27.635Z,98918.06
2023-07-12T19:55:57.521Z,98922.75
2023-07-12T19:58:32.406Z,98921.03
2023-07-12T20:01:04.703Z,98918.44
2023-07-12T20:03:39.544Z,98907.72
2023-07-12T20:06:10.818Z,98879.19
2023-07-12T20:08:50.472Z,98906.03
2023-07-12T20:11:26.770Z,98897.31
2023-07-12T20:13:58.016Z,98894.91
2023-07-12T20:16:30.937Z,98900.94
2023-07-12T20:21:40.246Z,98891.72
2023-07-12T20:24:13.640Z,98885.88
2023-07-12T20:26:43.417Z,98888.72
2023-07-12T20:29:14.469Z,98875.50
2023-07-12T20:31:45.980Z,98885.25
2023-07-12T20:36:53.104Z,98904.53
2023-07-12T20:39:24.473Z,98896.88
2023-07-12T20:41:55.697Z,98895.72
2023-07-12T20:44:33.796Z,98896.81
2023-07-12T20:47:05.718Z,98895.34
2023-07-12T20:49:39.859Z,98880.63
2023-07-12T20:52:15.730Z,98889.31
2023-07-12T20:54:46.536Z,98896.47
2023-07-12T20:57:16.401Z,98905.28
2023-07-12T20:59:45.773Z,98892.22
2023-07-12T21:02:24.371Z,98880.97
2023-07-12T21:04:53.998Z,98899.59
2023-07-12T21:07:28.313Z,98892.81
2023-07-12T21:09:57.879Z,98880.97
2023-07-12T21:12:27.205Z,98878.47
2023-07-12T21:14:57.569Z,98877.53
2023-07-12T21:17:34.061Z,98873.13
2023-07-12T21:20:05.485Z,98883.56
2023-07-12T21:22:35.746Z,98853.63
2023-07-12T21:25:05.278Z,98872.44
2023-07-12T21:27:34.802Z,98864.03
2023-07-12T21:30:04.620Z,98866.28
2023-07-12T21:32:39.139Z,98863.69
2023-07-12T21:35:09.881Z,98872.16
2023-07-12T21:37:44.264Z,98866.00
2023-07-12T21:40:18.730Z,98852.16
2023-07-12T21:42:48.732Z,98856.44
2023-07-12T21:45:18.254Z,98860.97
2023-07-12T21:47:49.607Z,98854.88
2023-07-12T21:50:24.004Z,98854.88
2023-07-12T21:52:53.380Z,98859.28
2023-07-12T21:55:22.593Z,98866.28
2023-07-12T21:57:51.920Z,98857.81
2023-07-12T22:00:22.216Z,98858.50
2023-07-12T22:02:53.939Z,98861.03
2023-07-12T22:05:23.066Z,98858.00
2023-07-12T22:07:57.395Z,98860.78
2023-07-12T22:10:29.032Z,98853.31
2023-07-12T22:13:03.712Z,98855.78
2023-07-12T22:15:34.158Z,98841.44
2023-07-12T22:18:06.599Z,98857.47
2023-07-12T22:20:46.429Z,98860.97
2023-07-12T22:23:15.761Z,98851.34
2023-07-12T22:25:45.066Z,98849.69
2023-07-12T22:28:14.439Z,98848.94
2023-07-12T22:30:44.139Z,98858.50
2023-07-12T22:33:15.694Z,98851.59
2023-07-12T22:35:45.565Z,98839.81
2023-07-12T22:38:15.811Z,98855.34
2023-07-12T22:40:45.107Z,98843.50
2023-07-12T22:43:14.413Z,98839.03
2023-07-12T22:45:48.849Z,98839.75
2023-07-12T22:48:20.217Z,98851.78
2023-07-12T22:53:26.289Z,98849.56
2023-07-12T22:55:59.373Z,98837.47
2023-07-12T22:58:34.691Z,98851.91
2023-07-12T23:01:09.167Z,98836.63
2023-07-12T23:03:40.741Z,98861.63
2023-07-12T23:08:57.511Z,98857.16
2023-07-12T23:11:26.955Z,98855.47
2023-07-12T23:13:56.087Z,98846.09
2023-07-12T23:16:27.993Z,98862.41
2023-07-12T23:19:04.723Z,98859.69
2023-07-12T23:21:40.310Z,98862.13
2023-07-12T23:24:09.927Z,98856.22
2023-07-12T23:26:49.235Z,98856.09
2023-07-12T23:29:18.618Z,98858.75
2023-07-12T23:31:49.851Z,98845.06
2023-07-12T23:34:26.110Z,98856.91
2023-07-12T23:36:55.764Z,98831.31
2023-07-12T23:39:25.069Z,98838.03
2023-07-12T23:41:55.373Z,98823.84
2023-07-12T23:44:34.773Z,98841.75
2023-07-12T23:47:06.366Z,98841.50
2023-07-12T23:49:37.588Z,98841.22
2023-07-12T23:52:08.422Z,98849.38
2023-07-12T23:54:37.775Z,98847.59
2023-07-12T23:57:08.138Z,98864.03
2023-07-12T23:59:44.214Z,98850.16
